sensor_id;sensor_type;location;lat;lon;timestamp;P1;durP1;ratioP1;P2;durP2;ratioP2
59458;SDS011;45269;43.568;22.244;2023-07-20T00:01:05;5.75;;;2.38;;
59458;SDS011;45269;43.568;22.244;2023-07-20T00:03:31;6.00;;;2.30;;
59458;SDS011;45269;43.568;22.244;2023-07-20T00:05:56;6.30;;;2.53;;
59458;SDS011;45269;43.568;22.244;2023-07-20T00:08:22;9.13;;;2.80;;
59458;SDS011;45269;43.568;22.244;2023-07-20T00:10:47;7.97;;;2.70;;
59458;SDS011;45269;43.568;22.244;2023-07-20T00:13:13;7.07;;;2.67;;
59458;SDS011;45269;43.568;22.244;2023-07-20T00:15:38;10.30;;;2.90;;
59458;SDS011;45269;43.568;22.244;2023-07-20T00:18:04;6.95;;;2.30;;
59458;SDS011;45269;43.568;22.244;2023-07-20T00:20:29;10.43;;;2.58;;
59458;SDS011;45269;43.568;22.244;2023-07-20T00:22:55;6.05;;;2.45;;
59458;SDS011;45269;43.568;22.244;2023-07-20T00:25:22;5.68;;;2.22;;
59458;SDS011;45269;43.568;22.244;2023-07-20T00:27:48;7.32;;;2.67;;
59458;SDS011;45269;43.568;22.244;2023-07-20T00:30:13;7.03;;;2.25;;
59458;SDS011;45269;43.568;22.244;2023-07-20T00:32:39;6.50;;;2.40;;
59458;SDS011;45269;43.568;22.244;2023-07-20T00:35:05;10.48;;;2.40;;
59458;SDS011;45269;43.568;22.244;2023-07-20T00:37:30;7.10;;;2.33;;
59458;SDS011;45269;43.568;22.244;2023-07-20T00:39:55;8.30;;;2.63;;
59458;SDS011;45269;43.568;22.244;2023-07-20T00:42:21;4.80;;;2.03;;
59458;SDS011;45269;43.568;22.244;2023-07-20T00:44:47;6.50;;;2.35;;
59458;SDS011;45269;43.568;22.244;2023-07-20T00:47:12;5.75;;;2.10;;
59458;SDS011;45269;43.568;22.244;2023-07-20T00:49:37;4.22;;;2.20;;
59458;SDS011;45269;43.568;22.244;2023-07-20T00:52:03;4.07;;;1.88;;
59458;SDS011;45269;43.568;22.244;2023-07-20T00:54:31;5.43;;;2.55;;
59458;SDS011;45269;43.568;22.244;2023-07-20T00:56:57;4.80;;;1.98;;
59458;SDS011;45269;43.568;22.244;2023-07-20T00:59:23;5.32;;;1.80;;
59458;SDS011;45269;43.568;22.244;2023-07-20T01:01:49;6.28;;;2.25;;
59458;SDS011;45269;43.568;22.244;2023-07-20T01:04:14;7.30;;;2.00;;
59458;SDS011;45269;43.568;22.244;2023-07-20T01:06:53;7.57;;;2.40;;
59458;SDS011;45269;43.568;22.244;2023-07-20T01:10:05;11.38;;;2.22;;
59458;SDS011;45269;43.568;22.244;2023-07-20T01:12:14;3.90;;;2.03;;
59458;SDS011;45269;43.568;22.244;2023-07-20T01:14:43;8.15;;;1.98;;
59458;SDS011;45269;43.568;22.244;2023-07-20T01:17:08;7.97;;;1.90;;
59458;SDS011;45269;43.568;22.244;2023-07-20T01:19:33;7.35;;;1.83;;
59458;SDS011;45269;43.568;22.244;2023-07-20T01:22:02;5.93;;;2.50;;
59458;SDS011;45269;43.568;22.244;2023-07-20T01:29:43;9.00;;;2.55;;
59458;SDS011;45269;43.568;22.244;2023-07-20T01:32:14;7.68;;;2.20;;
59458;SDS011;45269;43.568;22.244;2023-07-20T01:34:42;6.68;;;2.30;;
59458;SDS011;45269;43.568;22.244;2023-07-20T01:37:08;9.18;;;2.65;;
59458;SDS011;45269;43.568;22.244;2023-07-20T01:39:35;5.95;;;2.10;;
59458;SDS011;45269;43.568;22.244;2023-07-20T01:42:01;6.63;;;2.33;;
59458;SDS011;45269;43.568;22.244;2023-07-20T01:44:28;8.05;;;1.98;;
59458;SDS011;45269;43.568;22.244;2023-07-20T01:46:54;6.90;;;2.17;;
59458;SDS011;45269;43.568;22.244;2023-07-20T01:49:20;4.80;;;2.20;;
59458;SDS011;45269;43.568;22.244;2023-07-20T01:51:45;10.50;;;2.63;;
59458;SDS011;45269;43.568;22.244;2023-07-20T01:54:10;6.55;;;2.80;;
59458;SDS011;45269;43.568;22.244;2023-07-20T01:56:36;4.65;;;2.40;;
59458;SDS011;45269;43.568;22.244;2023-07-20T01:59:01;5.75;;;2.25;;
59458;SDS011;45269;43.568;22.244;2023-07-20T02:01:26;9.73;;;2.60;;
59458;SDS011;45269;43.568;22.244;2023-07-20T02:03:53;6.65;;;2.28;;
59458;SDS011;45269;43.568;22.244;2023-07-20T02:06:19;7.90;;;2.67;;
59458;SDS011;45269;43.568;22.244;2023-07-20T02:08:44;14.25;;;2.97;;
59458;SDS011;45269;43.568;22.244;2023-07-20T02:11:10;6.68;;;2.03;;
59458;SDS011;45269;43.568;22.244;2023-07-20T02:13:35;6.07;;;2.60;;
59458;SDS011;45269;43.568;22.244;2023-07-20T02:16:01;7.97;;;2.40;;
59458;SDS011;45269;43.568;22.244;2023-07-20T02:18:26;13.30;;;2.40;;
59458;SDS011;45269;43.568;22.244;2023-07-20T02:20:52;7.55;;;2.58;;
59458;SDS011;45269;43.568;22.244;2023-07-20T02:23:18;8.93;;;2.70;;
59458;SDS011;45269;43.568;22.244;2023-07-20T02:25:43;6.93;;;2.88;;
59458;SDS011;45269;43.568;22.244;2023-07-20T02:28:10;12.27;;;2.75;;
59458;SDS011;45269;43.568;22.244;2023-07-20T02:30:40;8.52;;;2.25;;
59458;SDS011;45269;43.568;22.244;2023-07-20T02:33:05;12.27;;;3.17;;
59458;SDS011;45269;43.568;22.244;2023-07-20T02:35:31;10.35;;;2.42;;
59458;SDS011;45269;43.568;22.244;2023-07-20T02:37:57;6.55;;;2.28;;
59458;SDS011;45269;43.568;22.244;2023-07-20T02:40:22;8.77;;;2.70;;
59458;SDS011;45269;43.568;22.244;2023-07-20T02:42:48;8.52;;;2.55;;
59458;SDS011;45269;43.568;22.244;2023-07-20T02:45:13;6.13;;;2.53;;
59458;SDS011;45269;43.568;22.244;2023-07-20T02:47:38;7.97;;;2.60;;
59458;SDS011;45269;43.568;22.244;2023-07-20T02:50:06;8.40;;;2.92;;
59458;SDS011;45269;43.568;22.244;2023-07-20T02:52:32;5.75;;;2.38;;
59458;SDS011;45269;43.568;22.244;2023-07-20T02:54:57;10.40;;;2.58;;
59458;SDS011;45269;43.568;22.244;2023-07-20T02:57:22;10.38;;;2.72;;
59458;SDS011;45269;43.568;22.244;2023-07-20T02:59:48;10.57;;;2.58;;
59458;SDS011;45269;43.568;22.244;2023-07-20T03:02:13;6.07;;;2.67;;
59458;SDS011;45269;43.568;22.244;2023-07-20T03:04:38;7.53;;;2.72;;
59458;SDS011;45269;43.568;22.244;2023-07-20T03:07:07;8.32;;;2.10;;
59458;SDS011;45269;43.568;22.244;2023-07-20T03:09:32;7.65;;;3.03;;
59458;SDS011;45269;43.568;22.244;2023-07-20T03:11:58;8.35;;;2.60;;
59458;SDS011;45269;43.568;22.244;2023-07-20T03:14:23;8.38;;;2.58;;
59458;SDS011;45269;43.568;22.244;2023-07-20T03:16:49;10.73;;;2.67;;
59458;SDS011;45269;43.568;22.244;2023-07-20T03:19:14;5.75;;;2.40;;
59458;SDS011;45269;43.568;22.244;2023-07-20T03:21:39;5.78;;;2.42;;
59458;SDS011;45269;43.568;22.244;2023-07-20T03:24:06;10.10;;;2.90;;
59458;SDS011;45269;43.568;22.244;2023-07-20T03:26:32;8.88;;;3.10;;
59458;SDS011;45269;43.568;22.244;2023-07-20T03:28:57;7.15;;;2.47;;
59458;SDS011;45269;43.568;22.244;2023-07-20T03:31:23;8.35;;;2.75;;
59458;SDS011;45269;43.568;22.244;2023-07-20T03:33:48;9.63;;;2.65;;
59458;SDS011;45269;43.568;22.244;2023-07-20T03:36:13;8.90;;;2.70;;
59458;SDS011;45269;43.568;22.244;2023-07-20T03:38:39;5.43;;;2.45;;
59458;SDS011;45269;43.568;22.244;2023-07-20T03:41:04;8.05;;;2.58;;
59458;SDS011;45269;43.568;22.244;2023-07-20T03:43:29;7.40;;;2.60;;
59458;SDS011;45269;43.568;22.244;2023-07-20T03:45:55;6.43;;;2.50;;
59458;SDS011;45269;43.568;22.244;2023-07-20T03:48:22;8.23;;;2.50;;
59458;SDS011;45269;43.568;22.244;2023-07-20T03:50:48;9.13;;;2.67;;
59458;SDS011;45269;43.568;22.244;2023-07-20T03:53:14;9.32;;;2.72;;
59458;SDS011;45269;43.568;22.244;2023-07-20T03:55:40;10.77;;;2.63;;
59458;SDS011;45269;43.568;22.244;2023-07-20T03:58:09;6.10;;;2.30;;
59458;SDS011;45269;43.568;22.244;2023-07-20T04:00:34;9.10;;;2.75;;
59458;SDS011;45269;43.568;22.244;2023-07-20T04:03:00;8.43;;;3.05;;
59458;SDS011;45269;43.568;22.244;2023-07-20T04:05:25;11.23;;;2.50;;
59458;SDS011;45269;43.568;22.244;2023-07-20T04:07:51;7.75;;;3.05;;
59458;SDS011;45269;43.568;22.244;2023-07-20T04:10:16;11.85;;;3.15;;
59458;SDS011;45269;43.568;22.244;2023-07-20T04:12:42;13.73;;;2.53;;
59458;SDS011;45269;43.568;22.244;2023-07-20T04:15:08;7.55;;;2.65;;
59458;SDS011;45269;43.568;22.244;2023-07-20T04:17:34;6.07;;;2.92;;
59458;SDS011;45269;43.568;22.244;2023-07-20T04:19:59;6.82;;;2.40;;
59458;SDS011;45269;43.568;22.244;2023-07-20T04:22:24;5.60;;;2.45;;
59458;SDS011;45269;43.568;22.244;2023-07-20T04:24:50;7.10;;;3.00;;
59458;SDS011;45269;43.568;22.244;2023-07-20T04:27:15;12.15;;;3.22;;
59458;SDS011;45269;43.568;22.244;2023-07-20T04:29:40;9.30;;;2.88;;
59458;SDS011;45269;43.568;22.244;2023-07-20T04:32:06;12.55;;;2.90;;
59458;SDS011;45269;43.568;22.244;2023-07-20T04:34:31;8.10;;;2.80;;
59458;SDS011;45269;43.568;22.244;2023-07-20T04:36:57;9.93;;;3.22;;
59458;SDS011;45269;43.568;22.244;2023-07-20T04:39:22;7.07;;;2.50;;
59458;SDS011;45269;43.568;22.244;2023-07-20T04:41:47;4.55;;;2.92;;
59458;SDS011;45269;43.568;22.244;2023-07-20T04:44:13;6.43;;;2.97;;
59458;SDS011;45269;43.568;22.244;2023-07-20T04:46:38;11.40;;;3.30;;
59458;SDS011;45269;43.568;22.244;2023-07-20T04:49:05;7.63;;;2.65;;
59458;SDS011;45269;43.568;22.244;2023-07-20T04:51:30;9.85;;;3.05;;
59458;SDS011;45269;43.568;22.244;2023-07-20T04:53:55;8.13;;;2.47;;
59458;SDS011;45269;43.568;22.244;2023-07-20T04:56:21;8.30;;;2.85;;
59458;SDS011;45269;43.568;22.244;2023-07-20T04:58:48;9.85;;;3.08;;
59458;SDS011;45269;43.568;22.244;2023-07-20T05:01:13;8.30;;;2.88;;
59458;SDS011;45269;43.568;22.244;2023-07-20T05:03:38;14.82;;;3.28;;
59458;SDS011;45269;43.568;22.244;2023-07-20T05:06:04;9.07;;;2.65;;
59458;SDS011;45269;43.568;22.244;2023-07-20T05:08:29;7.50;;;2.85;;
59458;SDS011;45269;43.568;22.244;2023-07-20T05:10:54;11.25;;;2.90;;
59458;SDS011;45269;43.568;22.244;2023-07-20T05:13:20;6.90;;;2.67;;
59458;SDS011;45269;43.568;22.244;2023-07-20T05:15:45;9.02;;;3.30;;
59458;SDS011;45269;43.568;22.244;2023-07-20T05:18:10;7.70;;;3.20;;
59458;SDS011;45269;43.568;22.244;2023-07-20T05:20:36;6.63;;;3.10;;
59458;SDS011;45269;43.568;22.244;2023-07-20T05:23:02;7.47;;;3.30;;
59458;SDS011;45269;43.568;22.244;2023-07-20T05:25:27;7.40;;;3.00;;
59458;SDS011;45269;43.568;22.244;2023-07-20T05:27:53;8.43;;;3.05;;
59458;SDS011;45269;43.568;22.244;2023-07-20T05:30:20;9.13;;;3.90;;
59458;SDS011;45269;43.568;22.244;2023-07-20T05:32:45;7.55;;;2.85;;
59458;SDS011;45269;43.568;22.244;2023-07-20T05:35:16;8.05;;;3.05;;
59458;SDS011;45269;43.568;22.244;2023-07-20T05:37:42;6.75;;;2.63;;
59458;SDS011;45269;43.568;22.244;2023-07-20T05:40:08;7.85;;;2.97;;
59458;SDS011;45269;43.568;22.244;2023-07-20T05:42:35;8.57;;;3.25;;
59458;SDS011;45269;43.568;22.244;2023-07-20T05:45:00;10.52;;;3.33;;
59458;SDS011;45269;43.568;22.244;2023-07-20T05:47:25;12.18;;;3.10;;
59458;SDS011;45269;43.568;22.244;2023-07-20T05:49:51;8.43;;;2.63;;
59458;SDS011;45269;43.568;22.244;2023-07-20T05:52:16;8.68;;;3.60;;
59458;SDS011;45269;43.568;22.244;2023-07-20T05:54:42;12.75;;;3.55;;
59458;SDS011;45269;43.568;22.244;2023-07-20T05:57:07;10.85;;;3.58;;
59458;SDS011;45269;43.568;22.244;2023-07-20T05:59:32;7.05;;;2.90;;
59458;SDS011;45269;43.568;22.244;2023-07-20T06:01:58;6.15;;;2.85;;
59458;SDS011;45269;43.568;22.244;2023-07-20T06:04:23;9.02;;;3.10;;
59458;SDS011;45269;43.568;22.244;2023-07-20T06:06:49;9.65;;;3.05;;
59458;SDS011;45269;43.568;22.244;2023-07-20T06:09:14;7.25;;;3.10;;
59458;SDS011;45269;43.568;22.244;2023-07-20T06:11:39;9.63;;;3.30;;
59458;SDS011;45269;43.568;22.244;2023-07-20T06:14:05;6.85;;;2.40;;
59458;SDS011;45269;43.568;22.244;2023-07-20T06:16:30;7.80;;;3.03;;
59458;SDS011;45269;43.568;22.244;2023-07-20T06:18:55;5.53;;;2.92;;
59458;SDS011;45269;43.568;22.244;2023-07-20T06:21:21;8.10;;;3.08;;
59458;SDS011;45269;43.568;22.244;2023-07-20T06:23:47;9.50;;;3.17;;
59458;SDS011;45269;43.568;22.244;2023-07-20T06:26:12;7.45;;;2.75;;
59458;SDS011;45269;43.568;22.244;2023-07-20T06:28:37;7.05;;;3.40;;
59458;SDS011;45269;43.568;22.244;2023-07-20T06:31:03;7.53;;;3.10;;
59458;SDS011;45269;43.568;22.244;2023-07-20T06:33:29;8.68;;;3.28;;
59458;SDS011;45269;43.568;22.244;2023-07-20T06:35:54;8.73;;;4.03;;
59458;SDS011;45269;43.568;22.244;2023-07-20T06:38:21;9.65;;;3.90;;
59458;SDS011;45269;43.568;22.244;2023-07-20T06:40:48;7.53;;;3.70;;
59458;SDS011;45269;43.568;22.244;2023-07-20T06:43:13;7.43;;;4.15;;
59458;SDS011;45269;43.568;22.244;2023-07-20T06:45:39;8.70;;;3.78;;
59458;SDS011;45269;43.568;22.244;2023-07-20T06:48:04;6.68;;;4.07;;
59458;SDS011;45269;43.568;22.244;2023-07-20T06:50:30;7.20;;;3.40;;
59458;SDS011;45269;43.568;22.244;2023-07-20T06:52:55;9.23;;;3.40;;
59458;SDS011;45269;43.568;22.244;2023-07-20T06:55:20;7.80;;;3.72;;
59458;SDS011;45269;43.568;22.244;2023-07-20T06:57:46;7.97;;;3.95;;
59458;SDS011;45269;43.568;22.244;2023-07-20T07:00:11;8.05;;;3.97;;
59458;SDS011;45269;43.568;22.244;2023-07-20T07:02:37;10.50;;;3.78;;
59458;SDS011;45269;43.568;22.244;2023-07-20T07:05:03;9.25;;;4.25;;
59458;SDS011;45269;43.568;22.244;2023-07-20T07:07:28;11.00;;;3.88;;
59458;SDS011;45269;43.568;22.244;2023-07-20T07:09:54;7.03;;;3.92;;
59458;SDS011;45269;43.568;22.244;2023-07-20T07:12:19;13.25;;;5.30;;
59458;SDS011;45269;43.568;22.244;2023-07-20T07:14:44;12.27;;;4.70;;
59458;SDS011;45269;43.568;22.244;2023-07-20T07:17:10;9.38;;;4.63;;
59458;SDS011;45269;43.568;22.244;2023-07-20T07:19:35;11.02;;;4.82;;
59458;SDS011;45269;43.568;22.244;2023-07-20T07:22:01;9.68;;;4.82;;
59458;SDS011;45269;43.568;22.244;2023-07-20T07:24:26;7.47;;;4.53;;
59458;SDS011;45269;43.568;22.244;2023-07-20T07:26:52;10.23;;;4.97;;
59458;SDS011;45269;43.568;22.244;2023-07-20T07:29:18;9.63;;;4.35;;
59458;SDS011;45269;43.568;22.244;2023-07-20T07:31:43;10.85;;;5.20;;
59458;SDS011;45269;43.568;22.244;2023-07-20T07:34:08;9.88;;;4.93;;
59458;SDS011;45269;43.568;22.244;2023-07-20T07:36:34;10.45;;;4.88;;
59458;SDS011;45269;43.568;22.244;2023-07-20T07:38:59;10.43;;;4.75;;
59458;SDS011;45269;43.568;22.244;2023-07-20T07:41:25;10.52;;;5.13;;
59458;SDS011;45269;43.568;22.244;2023-07-20T07:43:50;8.27;;;4.95;;
59458;SDS011;45269;43.568;22.244;2023-07-20T07:46:17;8.38;;;4.75;;
59458;SDS011;45269;43.568;22.244;2023-07-20T07:48:42;9.27;;;4.82;;
59458;SDS011;45269;43.568;22.244;2023-07-20T07:51:08;9.48;;;4.68;;
59458;SDS011;45269;43.568;22.244;2023-07-20T07:53:34;11.27;;;4.85;;
59458;SDS011;45269;43.568;22.244;2023-07-20T07:56:01;9.00;;;4.38;;
59458;SDS011;45269;43.568;22.244;2023-07-20T07:58:28;10.68;;;4.07;;
59458;SDS011;45269;43.568;22.244;2023-07-20T08:00:54;9.70;;;4.40;;
59458;SDS011;45269;43.568;22.244;2023-07-20T08:03:19;9.70;;;4.32;;
59458;SDS011;45269;43.568;22.244;2023-07-20T08:05:44;7.07;;;4.13;;
59458;SDS011;45269;43.568;22.244;2023-07-20T08:08:10;6.43;;;4.22;;
59458;SDS011;45269;43.568;22.244;2023-07-20T08:10:35;7.13;;;3.95;;
59458;SDS011;45269;43.568;22.244;2023-07-20T08:13:00;8.73;;;3.63;;
59458;SDS011;45269;43.568;22.244;2023-07-20T08:15:26;7.00;;;3.78;;
59458;SDS011;45269;43.568;22.244;2023-07-20T08:17:51;8.63;;;3.95;;
59458;SDS011;45269;43.568;22.244;2023-07-20T08:20:17;9.75;;;4.13;;
59458;SDS011;45269;43.568;22.244;2023-07-20T08:22:43;7.85;;;3.80;;
59458;SDS011;45269;43.568;22.244;2023-07-20T08:25:08;11.95;;;3.80;;
59458;SDS011;45269;43.568;22.244;2023-07-20T08:27:34;7.00;;;3.40;;
59458;SDS011;45269;43.568;22.244;2023-07-20T08:29:59;8.15;;;3.97;;
59458;SDS011;45269;43.568;22.244;2023-07-20T08:32:25;9.57;;;4.15;;
59458;SDS011;45269;43.568;22.244;2023-07-20T08:34:51;6.82;;;3.45;;
59458;SDS011;45269;43.568;22.244;2023-07-20T08:37:16;9.23;;;3.80;;
59458;SDS011;45269;43.568;22.244;2023-07-20T08:39:41;9.68;;;3.55;;
59458;SDS011;45269;43.568;22.244;2023-07-20T08:42:07;7.50;;;3.85;;
59458;SDS011;45269;43.568;22.244;2023-07-20T08:44:34;11.68;;;3.90;;
59458;SDS011;45269;43.568;22.244;2023-07-20T08:47:03;7.63;;;4.05;;
59458;SDS011;45269;43.568;22.244;2023-07-20T08:49:31;8.20;;;3.63;;
59458;SDS011;45269;43.568;22.244;2023-07-20T08:51:56;8.43;;;4.10;;
59458;SDS011;45269;43.568;22.244;2023-07-20T08:54:22;11.60;;;3.88;;
59458;SDS011;45269;43.568;22.244;2023-07-20T08:56:48;7.22;;;3.70;;
59458;SDS011;45269;43.568;22.244;2023-07-20T08:59:15;10.05;;;3.42;;
59458;SDS011;45269;43.568;22.244;2023-07-20T09:01:41;4.72;;;3.45;;
59458;SDS011;45269;43.568;22.244;2023-07-20T09:04:07;6.53;;;3.83;;
59458;SDS011;45269;43.568;22.244;2023-07-20T09:06:32;10.15;;;4.30;;
59458;SDS011;45269;43.568;22.244;2023-07-20T09:09:00;7.30;;;3.60;;
59458;SDS011;45269;43.568;22.244;2023-07-20T09:11:25;8.10;;;3.78;;
59458;SDS011;45269;43.568;22.244;2023-07-20T09:14:06;7.72;;;3.83;;
59458;SDS011;45269;43.568;22.244;2023-07-20T09:16:31;10.55;;;5.03;;
59458;SDS011;45269;43.568;22.244;2023-07-20T09:18:57;9.18;;;4.75;;
59458;SDS011;45269;43.568;22.244;2023-07-20T09:21:23;5.82;;;3.47;;
59458;SDS011;45269;43.568;22.244;2023-07-20T09:23:48;7.68;;;3.80;;
59458;SDS011;45269;43.568;22.244;2023-07-20T09:26:18;7.65;;;3.80;;
59458;SDS011;45269;43.568;22.244;2023-07-20T09:28:52;8.38;;;5.05;;
59458;SDS011;45269;43.568;22.244;2023-07-20T09:31:20;8.75;;;4.47;;
59458;SDS011;45269;43.568;22.244;2023-07-20T09:33:49;6.28;;;3.50;;
59458;SDS011;45269;43.568;22.244;2023-07-20T09:36:15;7.30;;;3.25;;
59458;SDS011;45269;43.568;22.244;2023-07-20T09:38:43;6.97;;;3.17;;
59458;SDS011;45269;43.568;22.244;2023-07-20T09:41:15;9.32;;;3.40;;
59458;SDS011;45269;43.568;22.244;2023-07-20T09:43:40;6.50;;;3.28;;
59458;SDS011;45269;43.568;22.244;2023-07-20T09:46:06;9.55;;;3.60;;
59458;SDS011;45269;43.568;22.244;2023-07-20T09:48:32;7.65;;;3.05;;
59458;SDS011;45269;43.568;22.244;2023-07-20T09:50:57;4.90;;;2.92;;
59458;SDS011;45269;43.568;22.244;2023-07-20T09:53:23;5.05;;;2.97;;
59458;SDS011;45269;43.568;22.244;2023-07-20T09:55:49;8.15;;;3.10;;
59458;SDS011;45269;43.568;22.244;2023-07-20T09:58:15;10.32;;;2.80;;
59458;SDS011;45269;43.568;22.244;2023-07-20T10:00:41;6.30;;;2.88;;
59458;SDS011;45269;43.568;22.244;2023-07-20T10:03:16;5.95;;;2.72;;
59458;SDS011;45269;43.568;22.244;2023-07-20T10:05:43;7.53;;;2.95;;
59458;SDS011;45269;43.568;22.244;2023-07-20T10:08:12;5.03;;;2.58;;
59458;SDS011;45269;43.568;22.244;2023-07-20T10:10:38;8.77;;;2.55;;
59458;SDS011;45269;43.568;22.244;2023-07-20T10:13:05;5.90;;;2.72;;
59458;SDS011;45269;43.568;22.244;2023-07-20T10:15:50;7.00;;;3.38;;
59458;SDS011;45269;43.568;22.244;2023-07-20T10:18:26;5.53;;;3.03;;
59458;SDS011;45269;43.568;22.244;2023-07-20T10:20:54;8.17;;;3.20;;
59458;SDS011;45269;43.568;22.244;2023-07-20T10:23:20;7.45;;;2.95;;
59458;SDS011;45269;43.568;22.244;2023-07-20T10:25:45;4.10;;;2.42;;
59458;SDS011;45269;43.568;22.244;2023-07-20T10:28:11;4.03;;;2.20;;
59458;SDS011;45269;43.568;22.244;2023-07-20T10:30:37;5.15;;;2.78;;
59458;SDS011;45269;43.568;22.244;2023-07-20T10:33:03;4.47;;;2.20;;
59458;SDS011;45269;43.568;22.244;2023-07-20T10:35:29;8.52;;;2.78;;
59458;SDS011;45269;43.568;22.244;2023-07-20T10:37:59;5.28;;;2.70;;
59458;SDS011;45269;43.568;22.244;2023-07-20T10:42:51;7.38;;;2.63;;
59458;SDS011;45269;43.568;22.244;2023-07-20T10:45:21;5.78;;;2.58;;
59458;SDS011;45269;43.568;22.244;2023-07-20T10:47:46;7.80;;;2.65;;
59458;SDS011;45269;43.568;22.244;2023-07-20T10:50:12;5.13;;;2.38;;
59458;SDS011;45269;43.568;22.244;2023-07-20T10:52:37;6.30;;;2.30;;
59458;SDS011;45269;43.568;22.244;2023-07-20T10:55:16;5.90;;;2.50;;
59458;SDS011;45269;43.568;22.244;2023-07-20T10:57:41;7.03;;;2.70;;
59458;SDS011;45269;43.568;22.244;2023-07-20T11:00:13;6.53;;;2.70;;
59458;SDS011;45269;43.568;22.244;2023-07-20T11:02:48;4.65;;;2.75;;
59458;SDS011;45269;43.568;22.244;2023-07-20T11:05:34;4.18;;;2.75;;
59458;SDS011;45269;43.568;22.244;2023-07-20T11:08:00;4.30;;;2.70;;
59458;SDS011;45269;43.568;22.244;2023-07-20T11:10:27;7.22;;;2.70;;
59458;SDS011;45269;43.568;22.244;2023-07-20T11:18:20;7.22;;;3.20;;
59458;SDS011;45269;43.568;22.244;2023-07-20T11:20:49;4.28;;;2.35;;
59458;SDS011;45269;43.568;22.244;2023-07-20T11:23:15;5.25;;;2.92;;
59458;SDS011;45269;43.568;22.244;2023-07-20T11:25:41;7.20;;;2.80;;
59458;SDS011;45269;43.568;22.244;2023-07-20T11:28:07;9.20;;;2.85;;
59458;SDS011;45269;43.568;22.244;2023-07-20T11:30:33;5.45;;;2.83;;
59458;SDS011;45269;43.568;22.244;2023-07-20T11:32:58;5.07;;;2.47;;
59458;SDS011;45269;43.568;22.244;2023-07-20T11:35:24;4.80;;;2.67;;
59458;SDS011;45269;43.568;22.244;2023-07-20T11:37:49;4.63;;;2.83;;
59458;SDS011;45269;43.568;22.244;2023-07-20T11:40:15;3.10;;;2.58;;
59458;SDS011;45269;43.568;22.244;2023-07-20T11:42:40;8.63;;;2.88;;
59458;SDS011;45269;43.568;22.244;2023-07-20T11:45:06;4.38;;;2.80;;
59458;SDS011;45269;43.568;22.244;2023-07-20T11:47:31;6.45;;;3.08;;
59458;SDS011;45269;43.568;22.244;2023-07-20T11:50:02;3.65;;;2.58;;
59458;SDS011;45269;43.568;22.244;2023-07-20T11:52:28;5.78;;;2.83;;
59458;SDS011;45269;43.568;22.244;2023-07-20T11:54:53;5.97;;;2.78;;
59458;SDS011;45269;43.568;22.244;2023-07-20T11:57:19;6.80;;;3.13;;
59458;SDS011;45269;43.568;22.244;2023-07-20T11:59:54;5.45;;;3.03;;
59458;SDS011;45269;43.568;22.244;2023-07-20T12:02:24;5.85;;;3.33;;
59458;SDS011;45269;43.568;22.244;2023-07-20T12:04:51;7.18;;;3.60;;
59458;SDS011;45269;43.568;22.244;2023-07-20T12:07:18;5.15;;;3.05;;
59458;SDS011;45269;43.568;22.244;2023-07-20T12:09:43;5.40;;;3.25;;
59458;SDS011;45269;43.568;22.244;2023-07-20T12:12:09;9.43;;;3.47;;
59458;SDS011;45269;43.568;22.244;2023-07-20T12:17:03;5.67;;;3.20;;
59458;SDS011;45269;43.568;22.244;2023-07-20T12:19:28;5.68;;;3.20;;
59458;SDS011;45269;43.568;22.244;2023-07-20T12:21:57;6.30;;;3.40;;
59458;SDS011;45269;43.568;22.244;2023-07-20T12:24:24;5.70;;;3.17;;
59458;SDS011;45269;43.568;22.244;2023-07-20T12:26:55;6.75;;;3.70;;
59458;SDS011;45269;43.568;22.244;2023-07-20T12:29:20;8.77;;;5.60;;
59458;SDS011;45269;43.568;22.244;2023-07-20T12:31:46;16.80;;;9.13;;
59458;SDS011;45269;43.568;22.244;2023-07-20T12:34:12;11.45;;;6.75;;
59458;SDS011;45269;43.568;22.244;2023-07-20T12:36:37;10.82;;;4.50;;
59458;SDS011;45269;43.568;22.244;2023-07-20T12:39:02;6.45;;;3.38;;
59458;SDS011;45269;43.568;22.244;2023-07-20T12:41:28;7.15;;;4.13;;
59458;SDS011;45269;43.568;22.244;2023-07-20T12:43:54;5.93;;;3.70;;
59458;SDS011;45269;43.568;22.244;2023-07-20T12:46:23;10.35;;;3.97;;
59458;SDS011;45269;43.568;22.244;2023-07-20T12:48:48;8.30;;;3.67;;
59458;SDS011;45269;43.568;22.244;2023-07-20T12:51:14;8.35;;;3.78;;
59458;SDS011;45269;43.568;22.244;2023-07-20T12:53:39;6.18;;;3.80;;
59458;SDS011;45269;43.568;22.244;2023-07-20T12:56:05;5.68;;;3.92;;
59458;SDS011;45269;43.568;22.244;2023-07-20T12:58:30;6.93;;;3.40;;
59458;SDS011;45269;43.568;22.244;2023-07-20T13:00:55;8.30;;;3.72;;
59458;SDS011;45269;43.568;22.244;2023-07-20T13:03:21;5.28;;;3.13;;
59458;SDS011;45269;43.568;22.244;2023-07-20T13:05:47;6.03;;;2.75;;
59458;SDS011;45269;43.568;22.244;2023-07-20T13:08:13;7.40;;;3.70;;
59458;SDS011;45269;43.568;22.244;2023-07-20T13:10:38;5.18;;;3.33;;
59458;SDS011;45269;43.568;22.244;2023-07-20T13:13:04;6.30;;;3.83;;
59458;SDS011;45269;43.568;22.244;2023-07-20T13:15:30;7.47;;;3.33;;
59458;SDS011;45269;43.568;22.244;2023-07-20T13:17:57;4.82;;;3.25;;
59458;SDS011;45269;43.568;22.244;2023-07-20T13:20:22;5.43;;;2.92;;
59458;SDS011;45269;43.568;22.244;2023-07-20T13:22:47;4.45;;;3.30;;
59458;SDS011;45269;43.568;22.244;2023-07-20T13:25:13;5.25;;;3.08;;
59458;SDS011;45269;43.568;22.244;2023-07-20T13:27:39;4.32;;;3.20;;
59458;SDS011;45269;43.568;22.244;2023-07-20T13:30:04;7.65;;;3.70;;
59458;SDS011;45269;43.568;22.244;2023-07-20T13:32:32;9.07;;;3.83;;
59458;SDS011;45269;43.568;22.244;2023-07-20T13:34:59;4.07;;;2.97;;
59458;SDS011;45269;43.568;22.244;2023-07-20T13:37:24;7.47;;;3.55;;
59458;SDS011;45269;43.568;22.244;2023-07-20T13:39:50;5.15;;;3.05;;
59458;SDS011;45269;43.568;22.244;2023-07-20T13:42:15;5.32;;;3.38;;
59458;SDS011;45269;43.568;22.244;2023-07-20T13:44:44;4.50;;;3.47;;
59458;SDS011;45269;43.568;22.244;2023-07-20T13:47:09;5.30;;;3.40;;
59458;SDS011;45269;43.568;22.244;2023-07-20T13:49:35;9.20;;;4.03;;
59458;SDS011;45269;43.568;22.244;2023-07-20T13:52:00;7.07;;;3.40;;
59458;SDS011;45269;43.568;22.244;2023-07-20T13:54:26;6.75;;;3.72;;
59458;SDS011;45269;43.568;22.244;2023-07-20T13:56:51;5.90;;;3.78;;
59458;SDS011;45269;43.568;22.244;2023-07-20T13:59:20;5.97;;;3.70;;
59458;SDS011;45269;43.568;22.244;2023-07-20T14:01:45;5.95;;;3.30;;
59458;SDS011;45269;43.568;22.244;2023-07-20T14:04:12;5.20;;;3.33;;
59458;SDS011;45269;43.568;22.244;2023-07-20T14:06:37;7.72;;;3.85;;
59458;SDS011;45269;43.568;22.244;2023-07-20T14:09:02;5.13;;;3.47;;
59458;SDS011;45269;43.568;22.244;2023-07-20T14:11:28;5.43;;;3.50;;
59458;SDS011;45269;43.568;22.244;2023-07-20T14:13:54;4.95;;;3.22;;
59458;SDS011;45269;43.568;22.244;2023-07-20T14:16:22;6.68;;;3.28;;
59458;SDS011;45269;43.568;22.244;2023-07-20T14:18:48;4.40;;;3.10;;
59458;SDS011;45269;43.568;22.244;2023-07-20T14:21:14;7.57;;;3.80;;
59458;SDS011;45269;43.568;22.244;2023-07-20T14:23:39;9.13;;;3.80;;
59458;SDS011;45269;43.568;22.244;2023-07-20T14:26:04;7.95;;;3.67;;
59458;SDS011;45269;43.568;22.244;2023-07-20T14:28:30;5.30;;;3.10;;
59458;SDS011;45269;43.568;22.244;2023-07-20T14:30:56;8.40;;;3.38;;
59458;SDS011;45269;43.568;22.244;2023-07-20T14:33:22;4.88;;;3.30;;
59458;SDS011;45269;43.568;22.244;2023-07-20T14:35:47;8.02;;;3.50;;
59458;SDS011;45269;43.568;22.244;2023-07-20T14:38:12;7.20;;;4.63;;
59458;SDS011;45269;43.568;22.244;2023-07-20T14:40:38;5.68;;;3.45;;
59458;SDS011;45269;43.568;22.244;2023-07-20T14:43:03;4.97;;;3.53;;